Time;durP1;ratioP1;P1;durP2;ratioP2;P2;SDS_P1;SDS_P2;PMS_P1;PMS_P2;Temp;Humidity;BMP_temperature;BMP_pressure;BME280_temperature;BME280_humidity;BME280_pressure;Samples;Min_cycle;Max_cycle;Signal;HPM_P1;HPM_P2
2022/08/14 00:00:18;;;;;;;12.23;9.10;;;;;;;;;;4974240;28;20051;-71
2022/08/14 00:02:46;;;;;;;11.75;9.07;;;;;;;;;;4974379;28;20065;-71
2022/08/14 00:05:19;;;;;;;15.13;9.25;;;;;;;;;;4974156;28;20057;-71
2022/08/14 00:07:47;;;;;;;14.13;9.50;;;;;;;;;;4974238;28;20125;-71
2022/08/14 00:10:17;;;;;;;16.80;9.38;;;;;;;;;;4974038;28;20053;-71
2022/08/14 00:13:05;;;;;;;18.85;10.70;;;;;;;;;;4973704;28;20038;-71
2022/08/14 00:15:35;;;;;;;14.48;9.18;;;;;;;;;;4973833;28;20039;-71
2022/08/14 00:18:13;;;;;;;13.80;9.55;;;;;;;;;;4974095;28;20046;-71
2022/08/14 00:21:00;;;;;;;13.57;9.73;;;;;;;;;;4974111;28;20050;-71
2022/08/14 00:23:29;;;;;;;17.17;10.32;;;;;;;;;;4974137;28;20117;-71
2022/08/14 00:25:59;;;;;;;15.40;9.85;;;;;;;;;;4956528;28;20054;-71
2022/08/14 00:28:35;;;;;;;17.30;9.65;;;;;;;;;;4973744;28;20089;-70
2022/08/14 00:31:05;;;;;;;19.52;9.95;;;;;;;;;;4973819;28;20039;-70
2022/08/14 00:33:34;;;;;;;12.25;9.27;;;;;;;;;;4973830;28;20047;-70
2022/08/14 00:36:20;;;;;;;13.40;9.43;;;;;;;;;;4956606;28;20054;-71
2022/08/14 00:39:07;;;;;;;18.60;12.82;;;;;;;;;;4973802;28;20386;-70
2022/08/14 00:41:36;;;;;;;20.08;9.32;;;;;;;;;;4973774;28;20038;-71
2022/08/14 00:44:06;;;;;;;19.88;13.43;;;;;;;;;;4973808;28;20039;-70
2022/08/14 00:46:34;;;;;;;16.42;11.52;;;;;;;;;;4973359;28;20058;-71
2022/08/14 00:49:02;;;;;;;17.17;11.27;;;;;;;;;;4973886;28;20062;-70
2022/08/14 00:51:32;;;;;;;19.13;11.90;;;;;;;;;;4973700;28;20101;-71
2022/08/14 00:54:05;;;;;;;27.90;14.25;;;;;;;;;;4973493;28;20070;-70
2022/08/14 00:56:47;;;;;;;25.98;15.90;;;;;;;;;;4973413;28;20478;-70
2022/08/14 00:59:15;;;;;;;18.70;10.02;;;;;;;;;;4973736;28;20053;-70
2022/08/14 01:01:43;;;;;;;36.88;22.05;;;;;;;;;;4973099;28;20129;-70
2022/08/14 01:04:12;;;;;;;22.80;11.70;;;;;;;;;;4973508;28;20043;-71
2022/08/14 01:07:01;;;;;;;16.95;10.73;;;;;;;;;;4973525;28;20046;-71
2022/08/14 01:09:35;;;;;;;;;;;;;;;;;;4960480;28;20442;-70
2022/08/14 01:12:03;;;;;;;20.48;12.07;;;;;;;;;;4977664;28;19926;-71
2022/08/14 01:14:31;;;;;;;17.83;13.27;;;;;;;;;;4977598;28;20038;-71
2022/08/14 01:16:58;;;;;;;23.75;17.60;;;;;;;;;;4960000;28;20046;-71
2022/08/14 01:22:14;;;;;;;21.73;13.82;;;;;;;;;;4959759;28;20051;-71
2022/08/14 01:24:45;;;;;;;27.60;19.92;;;;;;;;;;4977197;28;20489;-71
2022/08/14 01:27:20;;;;;;;26.73;18.52;;;;;;;;;;4977072;28;20035;-71
2022/08/14 01:29:52;;;;;;;13.80;10.45;;;;;;;;;;4977323;28;20511;-71
2022/08/14 01:32:31;;;;;;;17.33;10.80;;;;;;;;;;4977093;28;20039;-71
2022/08/14 01:35:09;;;;;;;15.05;10.63;;;;;;;;;;4977140;28;20055;-71
2022/08/14 01:37:57;;;;;;;16.27;11.23;;;;;;;;;;4977039;28;20049;-71
2022/08/14 01:40:26;;;;;;;15.52;10.45;;;;;;;;;;4976835;28;20533;-71
2022/08/14 01:43:07;;;;;;;14.07;10.02;;;;;;;;;;4976960;28;20511;-71
2022/08/14 01:45:37;;;;;;;18.00;12.25;;;;;;;;;;4959310;28;20055;-71
2022/08/14 01:48:07;;;;;;;16.98;10.98;;;;;;;;;;4976736;28;20382;-71
2022/08/14 01:50:40;;;;;;;15.60;10.40;;;;;;;;;;4959432;28;20105;-70
2022/08/14 01:53:08;;;;;;;15.35;10.85;;;;;;;;;;4976828;28;20043;-70
2022/08/14 01:55:38;;;;;;;19.88;11.65;;;;;;;;;;4976698;28;20573;-71
2022/08/14 01:58:12;;;;;;;22.05;11.05;;;;;;;;;;4959721;28;20468;-71
2022/08/14 02:00:53;;;;;;;21.33;11.25;;;;;;;;;;4959261;28;20051;-71
2022/08/14 02:03:23;;;;;;;19.55;11.70;;;;;;;;;;4976633;28;20493;-71
2022/08/14 02:06:00;;;;;;;15.82;10.55;;;;;;;;;;4959120;28;20509;-71
2022/08/14 02:08:30;;;;;;;16.43;10.43;;;;;;;;;;4959942;28;20043;-70
2022/08/14 02:14:05;;;;;;;19.67;10.77;;;;;;;;;;4916379;29;20075;-71
2022/08/14 02:16:37;;;;;;;15.82;11.15;;;;;;;;;;4965508;28;20150;-71
2022/08/14 02:19:10;;;;;;;17.70;10.80;;;;;;;;;;4976257;28;20043;-71
2022/08/14 02:21:38;;;;;;;17.80;11.15;;;;;;;;;;4975445;28;20384;-71
2022/08/14 02:24:13;;;;;;;15.30;11.25;;;;;;;;;;4976134;28;20378;-71
2022/08/14 02:27:01;;;;;;;15.38;11.50;;;;;;;;;;4976167;28;20117;-71
2022/08/14 02:29:49;;;;;;;14.18;10.60;;;;;;;;;;4976155;28;20063;-70
2022/08/14 02:32:27;;;;;;;16.88;10.93;;;;;;;;;;4976088;28;20129;-71
2022/08/14 02:35:12;;;;;;;15.35;11.02;;;;;;;;;;4975971;28;20047;-70
2022/08/14 02:37:40;;;;;;;14.95;10.25;;;;;;;;;;4975919;28;20093;-70
2022/08/14 02:40:15;;;;;;;;;;;;;;;;;;4960403;28;20049;-70
2022/08/14 02:42:42;;;;;;;16.85;11.52;;;;;;;;;;4975790;28;19929;-71
2022/08/14 02:45:23;;;;;;;14.93;11.07;;;;;;;;;;4975763;28;20086;-70
2022/08/14 02:48:02;;;;;;;17.45;10.68;;;;;;;;;;4975785;28;20467;-71
2022/08/14 02:50:29;;;;;;;18.52;11.23;;;;;;;;;;4975799;28;20049;-71
2022/08/14 02:53:00;;;;;;;17.75;11.20;;;;;;;;;;4975615;28;20125;-70
2022/08/14 02:55:31;;;;;;;14.80;11.18;;;;;;;;;;4975660;28;20049;-71
2022/08/14 02:57:58;;;;;;;17.80;11.38;;;;;;;;;;4975763;28;20051;-71
2022/08/14 03:00:34;;;;;;;16.15;10.63;;;;;;;;;;4975489;28;20494;-71
2022/08/14 03:03:06;;;;;;;17.95;10.80;;;;;;;;;;4975635;28;20042;-71
2022/08/14 03:05:35;;;;;;;18.90;12.23;;;;;;;;;;4974078;28;20082;-71
2022/08/14 03:08:08;;;;;;;15.80;11.38;;;;;;;;;;4975422;28;20042;-71
2022/08/14 03:10:37;;;;;;;19.35;11.07;;;;;;;;;;4975397;28;20047;-71
2022/08/14 03:13:14;;;;;;;18.08;10.50;;;;;;;;;;4974956;28;20050;-71
2022/08/14 03:15:52;;;;;;;16.65;11.93;;;;;;;;;;4975319;28;20057;-71
2022/08/14 03:18:25;;;;;;;16.38;10.75;;;;;;;;;;4975262;28;20093;-71
2022/08/14 03:21:01;;;;;;;17.50;11.68;;;;;;;;;;4975153;28;20057;-71
2022/08/14 03:23:34;;;;;;;18.45;11.18;;;;;;;;;;4975124;28;20055;-71
2022/08/14 03:26:05;;;;;;;37.45;23.65;;;;;;;;;;4975001;28;20065;-70
2022/08/14 03:28:33;;;;;;;18.23;11.95;;;;;;;;;;4957630;28;20050;-70
2022/08/14 03:31:06;;;;;;;18.10;12.50;;;;;;;;;;4957278;28;20137;-70
2022/08/14 03:33:40;;;;;;;21.83;12.05;;;;;;;;;;4974906;28;20062;-70
2022/08/14 03:36:11;;;;;;;19.38;12.23;;;;;;;;;;4974912;28;20405;-70
2022/08/14 03:38:58;;;;;;;18.83;12.50;;;;;;;;;;4974827;28;20042;-70
2022/08/14 03:41:44;;;;;;;26.67;12.90;;;;;;;;;;4974857;28;20046;-70
2022/08/14 03:44:12;;;;;;;21.92;12.93;;;;;;;;;;4974621;28;20496;-70
2022/08/14 03:47:00;;;;;;;20.08;13.05;;;;;;;;;;4974580;28;20082;-70
2022/08/14 03:49:29;;;;;;;32.22;21.42;;;;;;;;;;4974613;28;20489;-70
2022/08/14 03:51:57;;;;;;;20.50;12.07;;;;;;;;;;4973302;28;20085;-70
2022/08/14 03:54:28;;;;;;;17.77;11.52;;;;;;;;;;4974665;28;20039;-70
2022/08/14 03:56:59;;;;;;;24.05;12.23;;;;;;;;;;4974576;28;20047;-70
2022/08/14 03:59:31;;;;;;;23.83;14.68;;;;;;;;;;4974435;28;20049;-70
2022/08/14 04:01:59;;;;;;;27.25;17.92;;;;;;;;;;4957551;28;20039;-70
2022/08/14 04:04:30;;;;;;;24.23;13.32;;;;;;;;;;4974322;28;20057;-70
2022/08/14 04:06:59;;;;;;;27.45;13.57;;;;;;;;;;4974360;28;20057;-70
2022/08/14 04:09:28;;;;;;;19.80;13.07;;;;;;;;;;4974210;28;20097;-70
2022/08/14 04:11:56;;;;;;;20.70;15.05;;;;;;;;;;4957084;28;20042;-70
2022/08/14 04:14:27;;;;;;;37.15;14.45;;;;;;;;;;4974140;28;20396;-70
2022/08/14 04:16:55;;;;;;;25.40;14.52;;;;;;;;;;4973912;28;20046;-70
2022/08/14 04:19:23;;;;;;;23.50;11.98;;;;;;;;;;4957034;28;20049;-70
2022/08/14 04:21:51;;;;;;;22.60;12.80;;;;;;;;;;4974470;28;20054;-71
2022/08/14 04:24:30;;;;;;;24.45;14.25;;;;;;;;;;4958892;28;20063;-71
2022/08/14 04:27:12;;;;;;;22.02;14.23;;;;;;;;;;4974015;28;20070;-70
2022/08/14 04:29:44;;;;;;;21.45;13.20;;;;;;;;;;4957565;28;20053;-71
2022/08/14 04:32:11;;;;;;;27.75;15.52;;;;;;;;;;4973997;28;20481;-70
2022/08/14 04:35:02;;;;;;;21.38;13.38;;;;;;;;;;4973989;28;20526;-71
2022/08/14 04:46:08;;;;;;;27.25;18.88;;;;;;;;;;4973277;28;20062;-71
2022/08/14 04:48:38;;;;;;;22.17;13.25;;;;;;;;;;4973726;28;20126;-70
2022/08/14 04:51:13;;;;;;;21.48;14.95;;;;;;;;;;4973587;28;20489;-70
2022/08/14 04:53:43;;;;;;;21.77;16.00;;;;;;;;;;4956245;28;20493;-71
2022/08/14 04:56:13;;;;;;;23.27;13.77;;;;;;;;;;4973512;28;20035;-71
2022/08/14 04:59:03;;;;;;;18.27;13.00;;;;;;;;;;4973537;28;20043;-70
2022/08/14 05:01:40;;;;;;;19.40;13.02;;;;;;;;;;4973579;28;20086;-71
2022/08/14 05:04:16;;;;;;;23.02;14.30;;;;;;;;;;4973562;28;20130;-70
2022/08/14 05:06:47;;;;;;;21.90;12.57;;;;;;;;;;4973453;28;20051;-71
2022/08/14 05:09:15;;;;;;;22.15;14.10;;;;;;;;;;4973425;28;20658;-71
2022/08/14 05:11:43;;;;;;;20.67;13.77;;;;;;;;;;4973518;28;20070;-71
2022/08/14 05:14:12;;;;;;;25.40;14.20;;;;;;;;;;4973293;28;20401;-71
2022/08/14 05:17:00;;;;;;;25.55;13.93;;;;;;;;;;4973354;28;20520;-71
2022/08/14 05:19:28;;;;;;;27.30;15.80;;;;;;;;;;4973411;28;20043;-71
2022/08/14 05:22:00;;;;;;;25.77;14.95;;;;;;;;;;4973194;28;20039;-71
2022/08/14 05:24:49;;;;;;;28.02;15.45;;;;;;;;;;4973372;28;20125;-71
2022/08/14 05:27:19;;;;;;;27.65;16.00;;;;;;;;;;4973225;28;20050;-71
2022/08/14 05:29:54;;;;;;;24.80;13.45;;;;;;;;;;4973274;28;20070;-71
2022/08/14 05:32:24;;;;;;;20.30;13.10;;;;;;;;;;4956073;28;20047;-68
2022/08/14 05:34:56;;;;;;;19.10;16.58;;;;;;;;;;4973119;28;20512;-70
2022/08/14 05:37:26;;;;;;;17.30;12.77;;;;;;;;;;4973204;28;20410;-71
2022/08/14 05:39:56;;;;;;;19.17;12.43;;;;;;;;;;4973294;28;20117;-71
2022/08/14 05:42:23;;;;;;;24.75;17.02;;;;;;;;;;4973221;28;20051;-71
2022/08/14 05:44:58;;;;;;;30.52;23.77;;;;;;;;;;4973023;28;20038;-73
2022/08/14 05:47:26;;;;;;;22.20;17.05;;;;;;;;;;4974888;28;20035;-71
2022/08/14 05:50:06;;;;;;;25.67;15.30;;;;;;;;;;4973558;28;20122;-71
2022/08/14 05:52:45;;;;;;;22.65;16.20;;;;;;;;;;4972734;28;20066;-71
2022/08/14 05:55:12;;;;;;;18.73;10.50;;;;;;;;;;4975020;28;20118;-71
2022/08/14 05:57:47;;;;;;;13.38;10.38;;;;;;;;;;4958967;28;20043;-72
2022/08/14 06:00:16;;;;;;;16.80;10.70;;;;;;;;;;4973583;28;20438;-71
2022/08/14 06:02:57;;;;;;;16.08;11.10;;;;;;;;;;4975672;28;20035;-71
2022/08/14 06:05:27;;;;;;;14.30;11.48;;;;;;;;;;4976021;28;20066;-71
2022/08/14 06:07:56;;;;;;;18.80;14.23;;;;;;;;;;4973788;28;20058;-72
2022/08/14 06:10:24;;;;;;;13.68;11.05;;;;;;;;;;4976218;28;20433;-72
2022/08/14 06:12:54;;;;;;;15.45;10.02;;;;;;;;;;4973516;28;20058;-72
2022/08/14 06:15:25;;;;;;;16.77;10.75;;;;;;;;;;4975713;28;20042;-72
2022/08/14 06:17:57;;;;;;;14.38;9.82;;;;;;;;;;4975547;28;20039;-72
2022/08/14 06:20:26;;;;;;;16.05;11.00;;;;;;;;;;4975347;28;20042;-71
2022/08/14 06:22:56;;;;;;;14.18;10.32;;;;;;;;;;4976390;28;20043;-72
2022/08/14 06:25:25;;;;;;;16.48;11.25;;;;;;;;;;4976063;28;20052;-71
2022/08/14 06:27:54;;;;;;;11.25;10.10;;;;;;;;;;4975853;28;20043;-72
2022/08/14 06:30:26;;;;;;;13.13;9.77;;;;;;;;;;4976054;28;20090;-72
2022/08/14 06:33:12;;;;;;;15.43;10.55;;;;;;;;;;4975868;28;20113;-72
2022/08/14 06:35:42;;;;;;;17.88;11.10;;;;;;;;;;4975994;28;20062;-73
2022/08/14 06:38:19;;;;;;;14.00;11.93;;;;;;;;;;4975965;28;20109;-72
2022/08/14 06:40:50;;;;;;;15.82;10.18;;;;;;;;;;4975793;28;20046;-72
2022/08/14 06:43:20;;;;;;;15.63;11.82;;;;;;;;;;4975884;28;20101;-72
2022/08/14 06:45:53;;;;;;;11.65;9.65;;;;;;;;;;4975489;28;20082;-73
2022/08/14 06:48:24;;;;;;;12.50;10.38;;;;;;;;;;4975961;28;20397;-71
2022/08/14 06:50:54;;;;;;;15.88;10.68;;;;;;;;;;4975602;28;20062;-72
2022/08/14 06:53:24;;;;;;;13.25;10.63;;;;;;;;;;4975552;28;20053;-72
2022/08/14 06:55:56;;;;;;;26.58;12.23;;;;;;;;;;4975743;28;20396;-72
2022/08/14 06:58:28;;;;;;;12.73;10.77;;;;;;;;;;4975629;28;20408;-72
2022/08/14 07:06:52;;;;;;;14.60;10.95;;;;;;;;;;4974948;28;20046;-71
2022/08/14 07:09:24;;;;;;;17.60;11.40;;;;;;;;;;4975584;28;20043;-73
2022/08/14 07:11:54;;;;;;;13.20;10.60;;;;;;;;;;4975390;28;20043;-72
2022/08/14 07:14:24;;;;;;;13.65;10.93;;;;;;;;;;4975675;28;20042;-71
2022/08/14 07:16:52;;;;;;;14.23;10.48;;;;;;;;;;4975367;28;20073;-72
2022/08/14 07:19:20;;;;;;;13.45;10.52;;;;;;;;;;4975242;28;20062;-71
2022/08/14 07:21:48;;;;;;;13.27;10.63;;;;;;;;;;4975395;28;20049;-72
2022/08/14 07:24:17;;;;;;;16.20;11.02;;;;;;;;;;4975362;28;20450;-71
2022/08/14 07:26:58;;;;;;;13.57;10.95;;;;;;;;;;4975019;28;20046;-71
2022/08/14 07:29:25;;;;;;;12.55;11.05;;;;;;;;;;4974976;28;20043;-71
2022/08/14 07:31:55;;;;;;;13.50;10.98;;;;;;;;;;4974077;28;20097;-72
2022/08/14 07:34:24;;;;;;;16.98;11.38;;;;;;;;;;4974218;28;20046;-71
2022/08/14 07:37:06;;;;;;;13.18;11.38;;;;;;;;;;4974956;28;20109;-72
2022/08/14 07:39:36;;;;;;;16.77;11.73;;;;;;;;;;4974931;28;20129;-72
2022/08/14 07:42:05;;;;;;;13.13;11.73;;;;;;;;;;4974738;28;20054;-72
2022/08/14 07:44:33;;;;;;;17.63;11.82;;;;;;;;;;4974657;28;20039;-70
2022/08/14 07:47:15;;;;;;;13.88;11.95;;;;;;;;;;4974331;28;20078;-71
2022/08/14 07:49:49;;;;;;;17.10;13.00;;;;;;;;;;4974891;28;20044;-70
2022/08/14 07:52:21;;;;;;;21.80;16.23;;;;;;;;;;4974565;28;20046;-70
2022/08/14 07:54:59;;;;;;;17.58;12.23;;;;;;;;;;4973764;28;20035;-70
2022/08/14 07:57:27;;;;;;;17.58;12.80;;;;;;;;;;4973969;28;20980;-70
2022/08/14 07:59:54;;;;;;;17.15;11.75;;;;;;;;;;4974586;28;20070;-70
2022/08/14 08:02:26;;;;;;;17.83;13.30;;;;;;;;;;4974515;28;20038;-70
2022/08/14 08:04:54;;;;;;;15.43;11.63;;;;;;;;;;4973955;28;20045;-70
2022/08/14 08:07:27;;;;;;;34.85;21.08;;;;;;;;;;4974368;28;20055;-70
2022/08/14 08:09:57;;;;;;;20.10;14.50;;;;;;;;;;4974878;28;20050;-70
2022/08/14 08:12:26;;;;;;;28.83;25.25;;;;;;;;;;4974245;28;20378;-70
2022/08/14 08:14:58;;;;;;;31.92;23.13;;;;;;;;;;4973996;28;20386;-70
2022/08/14 08:17:38;;;;;;;21.17;15.70;;;;;;;;;;4973666;28;20043;-70
2022/08/14 08:20:23;;;;;;;22.10;16.80;;;;;;;;;;4974088;28;20047;-70
2022/08/14 08:22:57;;;;;;;17.13;13.25;;;;;;;;;;4974125;28;20058;-70
2022/08/14 08:25:34;;;;;;;27.25;23.65;;;;;;;;;;4956747;28;20054;-70
2022/08/14 08:28:14;;;;;;;31.60;24.50;;;;;;;;;;4973856;28;20385;-70
2022/08/14 08:30:48;;;;;;;20.95;16.10;;;;;;;;;;4974071;28;20392;-70
2022/08/14 08:33:17;;;;;;;42.90;34.25;;;;;;;;;;4974031;28;20135;-70
2022/08/14 08:35:45;;;;;;;30.50;24.23;;;;;;;;;;4974046;28;20501;-70
2022/08/14 08:38:22;;;;;;;40.38;30.08;;;;;;;;;;4973974;28;20387;-71
2022/08/14 08:41:10;;;;;;;33.13;22.52;;;;;;;;;;4974138;28;20052;-70
2022/08/14 08:43:39;;;;;;;38.50;25.58;;;;;;;;;;4957185;28;20035;-70
2022/08/14 08:46:14;;;;;;;34.22;22.70;;;;;;;;;;4973624;28;20055;-69
2022/08/14 08:48:53;;;;;;;36.80;24.35;;;;;;;;;;4973932;28;20046;-69
2022/08/14 08:51:26;;;;;;;42.25;31.13;;;;;;;;;;4974071;28;20515;-70
2022/08/14 08:54:00;;;;;;;18.85;14.43;;;;;;;;;;4973780;28;20079;-70
2022/08/14 08:56:42;;;;;;;17.95;14.05;;;;;;;;;;4973849;28;20102;-70
2022/08/14 08:59:18;;;;;;;20.88;16.95;;;;;;;;;;4973830;28;20093;-70
2022/08/14 09:01:51;;;;;;;20.85;17.05;;;;;;;;;;4973769;28;20046;-70
2022/08/14 09:04:28;;;;;;;19.23;15.80;;;;;;;;;;4973700;28;20041;-69
2022/08/14 09:06:55;;;;;;;26.55;20.48;;;;;;;;;;4973612;28;20477;-69
2022/08/14 09:09:50;;;;;;;58.60;43.65;;;;;;;;;;4973674;28;20452;-71
2022/08/14 09:12:26;;;;;;;66.63;50.78;;;;;;;;;;4973727;28;20126;-71
2022/08/14 09:15:00;;;;;;;67.07;53.55;;;;;;;;;;4973504;28;20045;-70
2022/08/14 09:17:27;;;;;;;36.15;29.60;;;;;;;;;;4973026;28;20457;-70
2022/08/14 09:19:55;;;;;;;81.40;66.13;;;;;;;;;;4973481;28;20063;-69
2022/08/14 09:22:23;;;;;;;45.38;36.47;;;;;;;;;;4973353;28;20051;-68
2022/08/14 09:25:04;;;;;;;24.13;19.15;;;;;;;;;;4972169;28;20047;-68
2022/08/14 09:27:34;;;;;;;26.02;20.38;;;;;;;;;;4970623;28;20046;-67
2022/08/14 09:30:01;;;;;;;19.77;17.70;;;;;;;;;;4975446;28;20508;-68
2022/08/14 09:32:58;;;;;;;27.10;21.13;;;;;;;;;;4976440;28;20393;-68
2022/08/14 09:35:35;;;;;;;25.33;18.67;;;;;;;;;;4976605;28;20065;-68
2022/08/14 09:38:15;;;;;;;24.70;19.00;;;;;;;;;;4976516;28;20054;-68
2022/08/14 09:41:03;;;;;;;32.05;22.15;;;;;;;;;;4974034;28;20493;-68
2022/08/14 09:43:34;;;;;;;26.48;21.48;;;;;;;;;;4973663;28;20046;-69
2022/08/14 09:46:06;;;;;;;27.48;21.98;;;;;;;;;;4976254;28;20500;-67
2022/08/14 09:48:34;;;;;;;24.13;17.23;;;;;;;;;;4973792;28;20497;-68
2022/08/14 09:51:02;;;;;;;17.73;13.75;;;;;;;;;;4973491;28;20385;-71
2022/08/14 09:53:35;;;;;;;16.15;12.73;;;;;;;;;;4973880;28;20035;-68
2022/08/14 09:56:22;;;;;;;14.45;10.30;;;;;;;;;;4974748;28;20031;-69
2022/08/14 09:58:59;;;;;;;10.10;9.00;;;;;;;;;;4974905;28;20398;-68
2022/08/14 10:01:35;;;;;;;12.30;9.75;;;;;;;;;;4974236;28;20489;-69
2022/08/14 10:04:06;;;;;;;13.23;10.43;;;;;;;;;;4974284;28;20034;-69
2022/08/14 10:06:54;;;;;;;12.38;9.63;;;;;;;;;;4974382;28;20066;-70
2022/08/14 10:09:22;;;;;;;13.07;9.20;;;;;;;;;;4974309;28;20039;-69
2022/08/14 10:11:55;;;;;;;15.57;9.80;;;;;;;;;;4976364;28;20071;-69
2022/08/14 10:14:31;;;;;;;10.63;8.13;;;;;;;;;;4976107;28;20042;-69
2022/08/14 10:17:03;;;;;;;11.30;8.52;;;;;;;;;;4975494;28;20623;-70
2022/08/14 10:19:32;;;;;;;10.45;8.55;;;;;;;;;;4974857;28;20035;-69
2022/08/14 10:22:09;;;;;;;11.02;9.23;;;;;;;;;;4975855;28;20041;-69
2022/08/14 10:24:57;;;;;;;12.90;11.50;;;;;;;;;;4975718;28;20035;-69
2022/08/14 10:27:27;;;;;;;13.27;9.85;;;;;;;;;;4975896;28;20122;-69
2022/08/14 10:29:58;;;;;;;10.80;8.68;;;;;;;;;;4975599;28;20038;-69
2022/08/14 10:32:26;;;;;;;10.43;8.35;;;;;;;;;;4975821;28;20043;-69
2022/08/14 10:35:12;;;;;;;13.77;11.25;;;;;;;;;;4974824;28;20137;-70
2022/08/14 10:37:48;;;;;;;12.23;9.75;;;;;;;;;;4972695;28;20047;-69
2022/08/14 10:40:37;;;;;;;10.35;9.18;;;;;;;;;;4975417;28;20058;-70
2022/08/14 10:43:25;;;;;;;13.05;10.55;;;;;;;;;;4968651;28;20099;-69
2022/08/14 10:46:00;;;;;;;12.82;9.15;;;;;;;;;;4973364;28;20047;-70
2022/08/14 10:49:01;;;;;;;12.25;9.63;;;;;;;;;;4975205;28;20038;-70
2022/08/14 10:51:33;;;;;;;13.02;9.85;;;;;;;;;;4966493;28;20393;-71
2022/08/14 10:54:07;;;;;;;13.65;10.48;;;;;;;;;;4975112;28;20043;-70
2022/08/14 10:56:56;;;;;;;14.07;10.90;;;;;;;;;;4975456;28;20047;-70
2022/08/14 10:59:24;;;;;;;14.43;10.07;;;;;;;;;;4975043;28;20063;-71
2022/08/14 11:01:58;;;;;;;15.45;11.68;;;;;;;;;;4975263;28;20047;-71
2022/08/14 11:04:27;;;;;;;15.38;11.07;;;;;;;;;;4975215;28;20050;-71
2022/08/14 11:06:58;;;;;;;14.63;11.57;;;;;;;;;;4975006;28;20494;-71
2022/08/14 11:09:25;;;;;;;12.82;10.70;;;;;;;;;;4975113;28;20043;-70
2022/08/14 11:11:59;;;;;;;13.80;10.00;;;;;;;;;;4974932;28;20039;-70
2022/08/14 11:14:50;;;;;;;13.60;10.35;;;;;;;;;;4975082;28;20057;-71
2022/08/14 11:17:27;;;;;;;12.82;8.70;;;;;;;;;;4974662;28;20047;-71
2022/08/14 11:20:00;;;;;;;11.80;8.23;;;;;;;;;;4975103;28;20388;-71
2022/08/14 11:22:29;;;;;;;10.13;8.93;;;;;;;;;;4974875;28;20038;-71
2022/08/14 11:25:19;;;;;;;12.50;10.05;;;;;;;;;;4974897;28;20081;-71
2022/08/14 11:27:47;;;;;;;14.35;10.52;;;;;;;;;;4974466;28;20435;-72
2022/08/14 11:30:18;;;;;;;11.95;10.52;;;;;;;;;;4974696;28;20393;-72
2022/08/14 11:33:06;;;;;;;13.27;10.90;;;;;;;;;;4957530;28;20039;-72
2022/08/14 11:35:36;;;;;;;14.00;9.88;;;;;;;;;;4974223;28;20066;-72
2022/08/14 11:38:14;;;;;;;14.00;11.27;;;;;;;;;;4957733;28;20038;-71
2022/08/14 11:40:43;;;;;;;14.93;11.73;;;;;;;;;;4974221;28;20038;-71
2022/08/14 11:43:15;;;;;;;17.13;12.32;;;;;;;;;;4973104;28;20060;-70
2022/08/14 11:45:46;;;;;;;14.90;12.10;;;;;;;;;;4973378;28;20528;-70
2022/08/14 11:48:15;;;;;;;15.00;12.93;;;;;;;;;;4972302;28;20053;-71
2022/08/14 11:51:11;;;;;;;15.60;12.90;;;;;;;;;;4973659;28;20117;-71
2022/08/14 11:53:42;;;;;;;14.07;12.65;;;;;;;;;;4974225;28;20047;-70
2022/08/14 11:56:12;;;;;;;16.13;13.45;;;;;;;;;;4973878;28;20489;-71
2022/08/14 11:58:39;;;;;;;13.80;12.30;;;;;;;;;;4974311;28;20134;-71
2022/08/14 12:01:09;;;;;;;14.13;12.60;;;;;;;;;;4973898;28;20045;-71
2022/08/14 12:03:36;;;;;;;13.85;12.30;;;;;;;;;;4969962;28;20226;-71
2022/08/14 12:06:19;;;;;;;16.35;13.88;;;;;;;;;;4972204;28;20041;-71
2022/08/14 12:09:02;;;;;;;15.38;13.73;;;;;;;;;;4970027;28;20038;-71
2022/08/14 12:11:39;;;;;;;16.33;13.00;;;;;;;;;;4972319;28;20043;-71
2022/08/14 12:14:10;;;;;;;19.25;14.18;;;;;;;;;;4972338;28;20131;-70
2022/08/14 12:16:59;;;;;;;13.30;10.98;;;;;;;;;;4972194;28;20039;-70
2022/08/14 12:19:28;;;;;;;16.15;13.05;;;;;;;;;;4972180;28;20097;-71
2022/08/14 12:22:01;;;;;;;19.38;15.25;;;;;;;;;;4972070;28;20043;-70
2022/08/14 12:24:29;;;;;;;14.95;12.43;;;;;;;;;;4971870;28;20583;-70
2022/08/14 12:27:02;;;;;;;17.58;13.02;;;;;;;;;;4973610;28;20053;-74
2022/08/14 12:29:30;;;;;;;17.08;13.55;;;;;;;;;;4976868;28;20045;-74
2022/08/14 12:32:06;;;;;;;14.90;11.52;;;;;;;;;;4974125;28;20054;-76
2022/08/14 12:34:41;;;;;;;13.77;10.65;;;;;;;;;;4973558;28;20039;-74
2022/08/14 12:37:11;;;;;;;11.45;9.20;;;;;;;;;;4973546;28;20046;-76
2022/08/14 12:39:39;;;;;;;12.75;9.50;;;;;;;;;;4973572;28;20035;-74
2022/08/14 12:42:08;;;;;;;12.18;9.52;;;;;;;;;;4973308;28;20445;-74
2022/08/14 12:44:58;;;;;;;10.93;8.63;;;;;;;;;;4973603;28;20062;-74
2022/08/14 12:47:30;;;;;;;12.23;8.65;;;;;;;;;;4973846;28;20055;-76
2022/08/14 12:49:59;;;;;;;11.52;8.50;;;;;;;;;;4972758;28;20101;-76
2022/08/14 12:52:31;;;;;;;10.70;8.55;;;;;;;;;;4972741;28;20137;-76
2022/08/14 12:55:19;;;;;;;11.00;8.15;;;;;;;;;;4972529;28;20094;-76
2022/08/14 12:57:51;;;;;;;9.90;8.73;;;;;;;;;;4972287;28;20412;-73
2022/08/14 13:00:24;;;;;;;11.20;9.73;;;;;;;;;;4973180;28;20681;-74
2022/08/14 13:02:53;;;;;;;13.95;11.15;;;;;;;;;;4973380;28;20047;-75
2022/08/14 13:05:23;;;;;;;15.30;12.70;;;;;;;;;;4961395;28;20043;-73
2022/08/14 13:07:56;;;;;;;12.52;9.48;;;;;;;;;;4979789;28;20074;-75
2022/08/14 13:10:26;;;;;;;12.68;9.23;;;;;;;;;;4979572;28;20097;-75
2022/08/14 13:13:15;;;;;;;12.52;9.20;;;;;;;;;;4962331;28;20046;-77
2022/08/14 13:15:45;;;;;;;10.45;8.85;;;;;;;;;;4979716;28;20113;-74
2022/08/14 13:18:16;;;;;;;10.93;9.82;;;;;;;;;;4962459;28;21261;-75
2022/08/14 13:20:46;;;;;;;16.50;12.90;;;;;;;;;;4979732;28;20465;-75
2022/08/14 13:23:27;;;;;;;9.05;7.88;;;;;;;;;;4979567;28;20039;-74
2022/08/14 13:25:59;;;;;;;9.82;7.03;;;;;;;;;;4979445;28;20066;-75
2022/08/14 13:28:27;;;;;;;8.73;7.05;;;;;;;;;;4979448;28;20046;-75
2022/08/14 13:31:02;;;;;;;8.45;6.45;;;;;;;;;;4979347;28;20125;-75
2022/08/14 13:33:38;;;;;;;7.68;6.53;;;;;;;;;;4979503;28;20516;-75
2022/08/14 13:36:08;;;;;;;8.20;6.70;;;;;;;;;;4979306;28;20039;-74
2022/08/14 13:38:36;;;;;;;9.75;7.57;;;;;;;;;;4979637;28;20385;-74
2022/08/14 13:41:06;;;;;;;10.82;7.13;;;;;;;;;;4979152;28;20045;-74
2022/08/14 13:43:35;;;;;;;11.82;7.53;;;;;;;;;;4978360;28;20038;-74
2022/08/14 13:46:18;;;;;;;9.90;7.60;;;;;;;;;;4978081;28;20075;-74
2022/08/14 13:48:46;;;;;;;9.68;7.28;;;;;;;;;;4978423;28;20093;-75
2022/08/14 13:51:15;;;;;;;10.55;7.53;;;;;;;;;;4976507;28;20038;-75
2022/08/14 13:53:47;;;;;;;8.50;7.45;;;;;;;;;;4976863;28;20163;-75
2022/08/14 13:56:37;;;;;;;9.02;7.10;;;;;;;;;;4977816;28;20050;-74
2022/08/14 13:59:05;;;;;;;9.15;7.53;;;;;;;;;;4977665;28;20441;-74
2022/08/14 14:01:33;;;;;;;8.80;7.90;;;;;;;;;;4977349;28;21433;-75
2022/08/14 14:04:12;;;;;;;9.07;7.28;;;;;;;;;;4976036;28;20042;-75
2022/08/14 14:06:47;;;;;;;9.27;7.82;;;;;;;;;;4978082;28;20066;-74
2022/08/14 14:09:15;;;;;;;11.13;8.10;;;;;;;;;;4978010;28;20047;-75
2022/08/14 14:11:46;;;;;;;8.70;7.40;;;;;;;;;;4977062;28;20049;-73
2022/08/14 14:14:20;;;;;;;10.93;7.80;;;;;;;;;;4977240;28;20045;-74
2022/08/14 14:17:10;;;;;;;10.32;8.80;;;;;;;;;;4974670;28;20035;-74
2022/08/14 14:19:40;;;;;;;12.05;9.63;;;;;;;;;;4974308;28;20074;-74
2022/08/14 14:22:08;;;;;;;13.45;10.30;;;;;;;;;;4971573;28;20057;-74
2022/08/14 14:24:38;;;;;;;12.48;10.18;;;;;;;;;;4950596;28;20401;-73
2022/08/14 14:27:11;;;;;;;8.25;6.90;;;;;;;;;;4973049;28;20105;-73
2022/08/14 14:30:00;;;;;;;10.50;7.63;;;;;;;;;;4976033;28;20058;-73
2022/08/14 14:32:30;;;;;;;8.82;6.50;;;;;;;;;;4975497;28;20508;-72
2022/08/14 14:35:02;;;;;;;9.05;6.57;;;;;;;;;;4974939;28;21060;-73
2022/08/14 14:37:29;;;;;;;8.13;6.85;;;;;;;;;;4973805;28;20047;-72
2022/08/14 14:39:58;;;;;;;24.17;17.90;;;;;;;;;;4975305;28;20121;-73
2022/08/14 14:42:47;;;;;;;15.05;9.00;;;;;;;;;;4958294;28;20049;-72
2022/08/14 14:45:22;;;;;;;10.00;8.10;;;;;;;;;;4975081;28;20513;-73
2022/08/14 14:47:55;;;;;;;14.63;11.57;;;;;;;;;;4975088;28;20043;-74
2022/08/14 14:50:26;;;;;;;10.13;8.25;;;;;;;;;;4975314;28;20101;-73
2022/08/14 14:52:55;;;;;;;11.07;7.95;;;;;;;;;;4958492;28;20035;-74
2022/08/14 14:55:40;;;;;;;11.35;8.07;;;;;;;;;;4975102;28;20097;-73
2022/08/14 14:58:29;;;;;;;8.63;6.20;;;;;;;;;;4961577;28;20094;-72
2022/08/14 15:00:58;;;;;;;10.25;9.10;;;;;;;;;;4975470;28;20039;-75
2022/08/14 15:03:26;;;;;;;10.95;7.80;;;;;;;;;;4974778;28;20543;-74
2022/08/14 15:05:55;;;;;;;9.93;8.38;;;;;;;;;;4974866;28;20062;-74
2022/08/14 15:08:22;;;;;;;28.58;24.48;;;;;;;;;;4941558;28;20098;-74
2022/08/14 15:11:10;;;;;;;10.82;8.70;;;;;;;;;;4975089;28;20046;-74
2022/08/14 15:13:40;;;;;;;23.05;19.08;;;;;;;;;;4974847;28;20503;-74
2022/08/14 15:16:09;;;;;;;14.27;12.40;;;;;;;;;;4974723;28;20078;-73
2022/08/14 15:18:37;;;;;;;12.18;10.15;;;;;;;;;;4974613;28;20054;-74